createdAt,value
2023-04-09T00:00:42.826Z,99.90
2023-04-09T00:03:09.636Z,99.90
2023-04-09T00:05:40.536Z,99.90
2023-04-09T00:08:07.515Z,99.90
2023-04-09T00:10:34.164Z,99.90
2023-04-09T00:13:01.126Z,99.90
2023-04-09T00:15:31.334Z,99.90
2023-04-09T00:17:59.015Z,99.90
2023-04-09T00:20:25.814Z,99.90
2023-04-09T00:22:52.485Z,99.90
2023-04-09T00:25:19.817Z,99.90
2023-04-09T00:27:46.808Z,99.90
2023-04-09T00:30:13.618Z,99.90
2023-04-09T00:32:40.536Z,99.90
2023-04-09T00:35:07.759Z,99.90
2023-04-09T00:37:34.745Z,99.90
2023-04-09T00:40:01.618Z,99.90
2023-04-09T00:42:34.774Z,99.90
2023-04-09T00:45:01.745Z,99.90
2023-04-09T00:47:30.473Z,99.90
2023-04-09T00:49:57.642Z,99.90
2023-04-09T00:52:25.305Z,99.90
2023-04-09T00:54:52.621Z,99.90
2023-04-09T00:57:19.686Z,99.90
2023-04-09T00:59:46.421Z,99.90
2023-04-09T01:02:13.227Z,99.90
2023-04-09T01:04:42.243Z,99.90
2023-04-09T01:07:31.933Z,99.90
2023-04-09T01:10:22.976Z,99.90
2023-04-09T01:13:17.691Z,99.90
2023-04-09T01:15:49.052Z,99.90
2023-04-09T01:18:28.219Z,99.90
2023-04-09T01:21:03.626Z,99.90
2023-04-09T01:23:57.232Z,99.90
2023-04-09T01:26:57.129Z,99.90
2023-04-09T01:29:31.456Z,99.90
2023-04-09T01:32:00.577Z,99.90
2023-04-09T01:34:29.015Z,99.90
2023-04-09T01:36:58.758Z,99.90
2023-04-09T01:39:27.027Z,99.90
2023-04-09T01:41:56.068Z,99.90
2023-04-09T01:44:24.780Z,99.90
2023-04-09T01:46:52.326Z,99.90
2023-04-09T01:49:19.261Z,99.90
2023-04-09T01:51:47.866Z,99.90
2023-04-09T01:54:16.012Z,99.90
2023-04-09T01:56:48.389Z,99.90
2023-04-09T01:59:15.700Z,99.90
2023-04-09T02:01:47.709Z,99.90
2023-04-09T02:04:30.631Z,99.90
2023-04-09T02:07:09.505Z,99.90
2023-04-09T02:09:39.126Z,99.90
2023-04-09T02:12:10.538Z,99.90
2023-04-09T02:14:38.545Z,99.90
2023-04-09T02:17:05.445Z,99.90
2023-04-09T02:19:42.999Z,99.90
2023-04-09T02:22:10.789Z,99.90
2023-04-09T02:24:37.927Z,99.90
2023-04-09T02:27:06.074Z,99.90
2023-04-09T02:29:32.780Z,99.90
2023-04-09T02:32:00.162Z,99.90
2023-04-09T02:34:27.328Z,99.90
2023-04-09T02:36:54.571Z,99.90
2023-04-09T02:39:21.580Z,99.90
2023-04-09T02:41:48.680Z,99.90
2023-04-09T02:44:15.731Z,99.90
2023-04-09T02:46:43.752Z,99.90
2023-04-09T02:49:10.569Z,99.90
2023-04-09T02:51:37.269Z,99.90
2023-04-09T02:54:04.478Z,99.90
2023-04-09T02:56:31.296Z,99.90
2023-04-09T02:58:58.008Z,99.90
2023-04-09T03:01:24.730Z,99.90
2023-04-09T03:03:51.553Z,99.90
2023-04-09T03:06:18.505Z,99.90
2023-04-09T03:08:45.706Z,99.90
2023-04-09T03:11:12.337Z,99.90
2023-04-09T03:13:39.026Z,99.90
2023-04-09T03:16:06.098Z,99.90
2023-04-09T03:18:32.783Z,99.90
2023-04-09T03:20:59.394Z,99.90
2023-04-09T03:23:27.844Z,99.90
2023-04-09T03:26:05.287Z,99.90
2023-04-09T03:28:41.317Z,99.90
2023-04-09T03:31:08.051Z,99.90
2023-04-09T03:33:37.624Z,99.90
2023-04-09T03:36:04.572Z,99.90
2023-04-09T03:38:45.224Z,99.90
2023-04-09T03:41:23.219Z,99.90
2023-04-09T03:43:50.068Z,99.90
2023-04-09T03:46:21.333Z,99.90
2023-04-09T03:48:48.553Z,99.90
2023-04-09T03:51:15.598Z,99.90
2023-04-09T03:53:47.764Z,99.90
2023-04-09T03:56:14.374Z,99.90
2023-04-09T03:58:42.234Z,99.90
2023-04-09T04:01:11.072Z,99.90
2023-04-09T04:03:44.244Z,99.90
2023-04-09T04:06:19.624Z,99.90
2023-04-09T04:08:54.872Z,99.90
2023-04-09T04:11:27.184Z,99.90
2023-04-09T04:13:56.002Z,99.90
2023-04-09T04:16:24.031Z,99.90
2023-04-09T04:18:51.924Z,99.90
2023-04-09T04:21:19.032Z,99.90
2023-04-09T04:23:54.338Z,99.90
2023-04-09T04:26:25.632Z,99.90
2023-04-09T04:28:52.430Z,99.90
2023-04-09T04:31:42.858Z,99.90
2023-04-09T04:34:10.222Z,99.90
2023-04-09T04:36:37.723Z,99.90
2023-04-09T04:39:05.040Z,99.90
2023-04-09T04:41:42.404Z,99.90
2023-04-09T04:44:22.269Z,99.90
2023-04-09T04:46:53.695Z,99.90
2023-04-09T04:49:20.340Z,99.90
2023-04-09T04:51:48.110Z,99.90
2023-04-09T04:54:16.269Z,99.90
2023-04-09T04:56:52.209Z,99.90
2023-04-09T04:59:30.471Z,99.90
2023-04-09T05:02:04.297Z,99.90
2023-04-09T05:04:36.627Z,99.90
2023-04-09T05:07:04.094Z,99.90
2023-04-09T05:09:30.735Z,99.90
2023-04-09T05:12:04.605Z,99.90
2023-04-09T05:14:32.133Z,99.90
2023-04-09T05:16:59.484Z,99.90
2023-04-09T05:19:32.696Z,99.90
2023-04-09T05:22:02.673Z,99.90
2023-04-09T05:24:29.605Z,99.90
2023-04-09T05:26:56.234Z,99.90
2023-04-09T05:29:23.221Z,99.90
2023-04-09T05:31:49.840Z,99.90
2023-04-09T05:34:36.360Z,99.90
2023-04-09T05:37:03.414Z,99.90
2023-04-09T05:39:32.810Z,99.90
2023-04-09T05:42:00.921Z,99.90
2023-04-09T05:44:32.532Z,99.90
2023-04-09T05:47:14.203Z,99.90
2023-04-09T05:49:46.517Z,99.90
2023-04-09T05:52:16.780Z,99.90
2023-04-09T05:54:43.600Z,99.90
2023-04-09T05:57:11.647Z,99.90
2023-04-09T05:59:41.657Z,99.90
2023-04-09T06:02:08.408Z,99.90
2023-04-09T06:04:35.150Z,99.90
2023-04-09T06:07:02.815Z,99.90
2023-04-09T06:09:29.482Z,99.90
2023-04-09T06:11:57.589Z,99.90
2023-04-09T06:14:24.294Z,99.90
2023-04-09T06:16:51.050Z,99.90
2023-04-09T06:19:17.708Z,99.80
2023-04-09T06:21:44.560Z,99.20
2023-04-09T06:24:11.194Z,98.50
2023-04-09T06:26:37.863Z,98.30
2023-04-09T06:29:04.749Z,98.10
2023-04-09T06:31:31.831Z,98.20
2023-04-09T06:33:58.680Z,98.00
2023-04-09T06:36:26.596Z,97.90
2023-04-09T06:38:54.031Z,97.50
2023-04-09T06:41:22.522Z,97.60
2023-04-09T06:43:49.656Z,98.10
2023-04-09T06:46:19.887Z,98.10
2023-04-09T06:48:47.344Z,97.90
2023-04-09T06:51:14.858Z,98.30
2023-04-09T06:53:41.718Z,98.70
2023-04-09T06:56:08.496Z,99.00
2023-04-09T06:58:35.422Z,99.10
2023-04-09T07:01:02.307Z,99.00
2023-04-09T07:03:29.410Z,98.90
2023-04-09T07:05:57.501Z,99.00
2023-04-09T07:08:24.394Z,99.10
2023-04-09T07:10:51.088Z,99.10
2023-04-09T07:13:17.769Z,99.10
2023-04-09T07:15:44.849Z,98.60
2023-04-09T07:18:11.531Z,98.80
2023-04-09T07:20:38.307Z,97.90
2023-04-09T07:23:05.110Z,97.40
2023-04-09T07:25:32.286Z,97.50
2023-04-09T07:27:59.111Z,97.00
2023-04-09T07:30:25.839Z,95.90
2023-04-09T07:32:52.622Z,95.70
2023-04-09T07:35:19.400Z,93.40
2023-04-09T07:37:46.108Z,93.30
2023-04-09T07:40:12.868Z,93.00
2023-04-09T07:42:40.478Z,92.10
2023-04-09T07:45:07.604Z,92.10
2023-04-09T07:47:34.246Z,90.70
2023-04-09T07:50:01.219Z,91.30
2023-04-09T07:52:27.921Z,89.70
2023-04-09T07:54:54.548Z,89.20
2023-04-09T07:57:21.174Z,87.80
2023-04-09T07:59:47.805Z,86.50
2023-04-09T08:02:15.475Z,87.00
2023-04-09T08:04:42.391Z,87.30
2023-04-09T08:07:09.582Z,85.40
2023-04-09T08:09:36.325Z,85.20
2023-04-09T08:12:03.805Z,86.40
2023-04-09T08:14:30.470Z,85.40
2023-04-09T08:16:57.514Z,85.90
2023-04-09T08:19:24.693Z,85.30
2023-04-09T08:21:52.361Z,84.60
2023-04-09T08:24:19.065Z,85.50
2023-04-09T08:26:45.954Z,83.60
2023-04-09T08:29:13.500Z,83.90
2023-04-09T08:31:40.216Z,84.20
2023-04-09T08:34:07.108Z,82.40
2023-04-09T08:36:35.346Z,83.40
2023-04-09T08:39:02.646Z,81.80
2023-04-09T08:41:29.839Z,81.10
2023-04-09T08:43:59.287Z,82.50
2023-04-09T08:46:27.196Z,83.20
2023-04-09T08:48:54.568Z,82.20
2023-04-09T08:51:23.330Z,84.40
2023-04-09T08:53:56.369Z,82.60
2023-04-09T08:56:23.731Z,82.30
2023-04-09T08:58:50.938Z,78.10
2023-04-09T09:01:25.812Z,79.50
2023-04-09T09:04:09.279Z,79.30
2023-04-09T09:06:39.460Z,79.00
2023-04-09T09:09:11.446Z,77.50
2023-04-09T09:11:46.208Z,75.70
2023-04-09T09:14:18.022Z,76.70
2023-04-09T09:17:05.880Z,75.10
2023-04-09T09:19:33.683Z,75.10
2023-04-09T09:22:02.752Z,74.90
2023-04-09T09:24:30.739Z,74.70
2023-04-09T09:26:58.756Z,74.20
2023-04-09T09:29:26.375Z,75.20
2023-04-09T09:31:54.780Z,74.50
2023-04-09T09:34:23.905Z,75.10
2023-04-09T09:36:50.793Z,76.40
2023-04-09T09:39:18.456Z,76.30
2023-04-09T09:41:46.320Z,76.00
2023-04-09T09:44:30.238Z,76.90
2023-04-09T09:46:58.540Z,76.70
2023-04-09T09:49:25.251Z,77.20
2023-04-09T09:51:55.919Z,73.80
2023-04-09T09:54:25.203Z,74.40
2023-04-09T09:56:55.543Z,74.70
2023-04-09T09:59:25.877Z,75.70
2023-04-09T10:02:01.162Z,72.10
2023-04-09T10:04:31.473Z,74.60
2023-04-09T10:06:58.977Z,74.30
2023-04-09T10:09:27.859Z,75.40
2023-04-09T10:11:58.111Z,75.50
2023-04-09T10:14:27.314Z,77.50
2023-04-09T10:16:54.362Z,76.90
2023-04-09T10:19:22.306Z,78.20
2023-04-09T10:21:58.128Z,77.30
2023-04-09T10:24:25.336Z,77.00
2023-04-09T10:26:54.853Z,78.30
2023-04-09T10:29:29.104Z,76.60
2023-04-09T10:32:06.968Z,78.20
2023-04-09T10:34:42.832Z,76.80
2023-04-09T10:37:20.173Z,77.50
2023-04-09T10:39:48.257Z,77.30
2023-04-09T10:42:19.178Z,77.90
2023-04-09T10:44:45.946Z,77.70
2023-04-09T10:47:30.690Z,78.40
2023-04-09T10:49:57.360Z,77.00
2023-04-09T10:52:30.094Z,78.20
2023-04-09T10:54:57.102Z,75.10
2023-04-09T10:57:24.440Z,76.40
2023-04-09T10:59:55.188Z,75.60
2023-04-09T11:02:48.315Z,75.70
2023-04-09T11:05:17.951Z,76.30
2023-04-09T11:07:48.121Z,76.70
2023-04-09T11:10:14.817Z,77.60
2023-04-09T11:12:42.878Z,76.70
2023-04-09T11:15:19.734Z,77.90
2023-04-09T11:17:47.968Z,76.30
2023-04-09T11:20:17.009Z,76.10
2023-04-09T11:22:43.667Z,76.80
2023-04-09T11:25:10.310Z,77.20
2023-04-09T11:27:46.914Z,77.40
2023-04-09T11:30:14.815Z,79.40
2023-04-09T11:32:41.905Z,77.70
2023-04-09T11:35:13.314Z,77.40
2023-04-09T11:37:41.008Z,78.80
2023-04-09T11:40:16.091Z,78.40
2023-04-09T11:42:44.826Z,77.20
2023-04-09T11:45:12.700Z,77.70
2023-04-09T11:47:43.265Z,76.10
2023-04-09T11:50:12.036Z,76.60
2023-04-09T11:52:41.225Z,76.40
2023-04-09T11:55:11.620Z,75.70
2023-04-09T11:57:42.868Z,75.50
2023-04-09T12:00:16.884Z,75.00
2023-04-09T12:02:46.889Z,75.10
2023-04-09T12:05:25.934Z,74.60
2023-04-09T12:08:01.361Z,75.00
2023-04-09T12:10:32.820Z,73.90
2023-04-09T12:13:10.253Z,73.30
2023-04-09T12:15:38.910Z,73.90
2023-04-09T12:18:09.310Z,73.30
2023-04-09T12:20:47.660Z,74.70
2023-04-09T12:23:14.603Z,74.70
2023-04-09T12:25:43.110Z,75.30
2023-04-09T12:28:12.164Z,74.30
2023-04-09T12:30:38.901Z,73.30
2023-04-09T12:33:07.144Z,72.70
2023-04-09T12:35:34.957Z,73.80
2023-04-09T12:38:01.921Z,73.70
2023-04-09T12:40:28.951Z,73.70
2023-04-09T12:42:55.903Z,73.20
2023-04-09T12:45:22.563Z,73.00
2023-04-09T12:47:49.583Z,73.30
2023-04-09T12:50:16.569Z,72.90
2023-04-09T12:52:44.325Z,72.50
2023-04-09T12:55:12.696Z,72.40
2023-04-09T12:57:41.486Z,72.90
2023-04-09T13:00:08.894Z,73.30
2023-04-09T13:02:36.244Z,72.40
2023-04-09T13:05:04.404Z,72.30
2023-04-09T13:07:31.137Z,71.10
2023-04-09T13:09:57.923Z,73.50
2023-04-09T13:12:25.006Z,73.70
2023-04-09T13:14:53.984Z,73.60
2023-04-09T13:17:21.166Z,73.40
2023-04-09T13:19:48.498Z,72.40
2023-04-09T13:22:15.372Z,72.70
2023-04-09T13:24:43.097Z,72.90
2023-04-09T13:27:11.206Z,71.10
2023-04-09T13:29:38.078Z,72.50
2023-04-09T13:32:07.323Z,73.30
2023-04-09T13:34:35.143Z,73.00
2023-04-09T13:37:03.188Z,74.10
2023-04-09T13:39:29.949Z,75.00
2023-04-09T13:41:56.856Z,74.60
2023-04-09T13:44:25.155Z,75.10
2023-04-09T13:46:51.923Z,75.30
2023-04-09T13:49:18.628Z,74.40
2023-04-09T13:51:45.737Z,74.30
2023-04-09T13:54:13.053Z,75.30
2023-04-09T13:56:39.790Z,73.70
2023-04-09T13:59:06.593Z,73.80
2023-04-09T14:01:34.077Z,74.10
2023-04-09T14:04:00.956Z,73.60
2023-04-09T14:06:27.918Z,73.20
2023-04-09T14:08:55.822Z,73.00
2023-04-09T14:11:22.675Z,74.60
2023-04-09T14:13:49.583Z,75.00
2023-04-09T14:16:16.355Z,74.30
2023-04-09T14:18:43.122Z,74.50
2023-04-09T14:21:10.360Z,75.10
2023-04-09T14:23:38.704Z,75.40
2023-04-09T14:26:06.562Z,75.80
2023-04-09T14:28:33.489Z,75.70
2023-04-09T14:31:01.161Z,77.00
2023-04-09T14:33:28.036Z,74.40
2023-04-09T14:35:54.744Z,75.10
2023-04-09T14:38:24.540Z,75.50
2023-04-09T14:40:52.042Z,75.80
2023-04-09T14:43:18.831Z,75.40
2023-04-09T14:45:45.430Z,75.30
2023-04-09T14:48:12.064Z,74.10
2023-04-09T14:50:38.793Z,74.40
2023-04-09T14:53:05.682Z,74.80
2023-04-09T14:55:32.300Z,74.90
2023-04-09T14:57:59.634Z,74.50
2023-04-09T15:00:26.622Z,74.80
2023-04-09T15:02:53.917Z,73.90
2023-04-09T15:05:20.640Z,73.60
2023-04-09T15:07:47.229Z,73.40
2023-04-09T15:10:14.051Z,73.60
2023-04-09T15:12:40.698Z,73.90
2023-04-09T15:15:08.478Z,74.30
2023-04-09T15:17:35.598Z,75.30
2023-04-09T15:20:02.368Z,75.50
2023-04-09T15:22:29.022Z,75.00
2023-04-09T15:24:55.935Z,74.80
2023-04-09T15:27:22.645Z,74.20
2023-04-09T15:29:49.806Z,74.40
2023-04-09T15:32:16.502Z,74.20
2023-04-09T15:34:43.154Z,72.70
2023-04-09T15:37:09.794Z,73.20
2023-04-09T15:39:36.460Z,74.40
2023-04-09T15:42:03.219Z,73.90
2023-04-09T15:44:29.879Z,74.30
2023-04-09T15:46:56.706Z,74.10
2023-04-09T15:49:23.451Z,73.50
2023-04-09T15:51:50.527Z,73.90
2023-04-09T15:54:17.150Z,73.80
2023-04-09T15:56:43.727Z,73.60
2023-04-09T15:59:11.069Z,74.20
2023-04-09T16:01:38.139Z,74.60
2023-04-09T16:04:05.265Z,75.20
2023-04-09T16:06:32.316Z,75.20
2023-04-09T16:08:59.302Z,75.40
2023-04-09T16:11:26.087Z,74.50
2023-04-09T16:13:53.108Z,75.40
2023-04-09T16:16:20.578Z,74.20
2023-04-09T16:18:47.542Z,74.90
2023-04-09T16:21:14.302Z,74.60
2023-04-09T16:23:41.426Z,73.40
2023-04-09T16:26:08.171Z,74.10
2023-04-09T16:28:34.811Z,74.30
2023-04-09T16:31:01.592Z,73.50
2023-04-09T16:33:28.229Z,73.60
2023-04-09T16:35:54.869Z,74.10
2023-04-09T16:38:23.469Z,74.70
2023-04-09T16:40:50.874Z,74.10
2023-04-09T16:43:17.524Z,74.20
2023-04-09T16:45:44.275Z,74.10
2023-04-09T16:48:12.320Z,72.50
2023-04-09T16:50:39.934Z,73.40
2023-04-09T16:53:06.624Z,73.80
2023-04-09T16:55:33.645Z,73.50
2023-04-09T16:58:00.390Z,73.70
2023-04-09T17:00:27.471Z,74.20
2023-04-09T17:02:55.554Z,73.60
2023-04-09T17:05:22.770Z,73.70
2023-04-09T17:07:49.412Z,73.60
2023-04-09T17:10:16.265Z,74.30
2023-04-09T17:12:44.363Z,73.90
2023-04-09T17:15:11.371Z,73.40
2023-04-09T17:17:38.174Z,73.90
2023-04-09T17:20:05.646Z,74.10
2023-04-09T17:22:32.428Z,73.90
2023-04-09T17:24:59.095Z,74.30
2023-04-09T17:27:25.902Z,74.60
2023-04-09T17:29:53.579Z,74.50
2023-04-09T17:32:20.298Z,74.50
2023-04-09T17:34:49.120Z,74.90
2023-04-09T17:37:16.098Z,74.90
2023-04-09T17:39:43.690Z,74.90
2023-04-09T17:42:14.486Z,75.00
2023-04-09T17:44:43.850Z,74.20
2023-04-09T17:47:12.227Z,75.00
2023-04-09T17:49:39.317Z,74.80
2023-04-09T17:52:06.081Z,75.00
2023-04-09T17:54:34.446Z,75.20
2023-04-09T17:57:04.553Z,75.40
2023-04-09T17:59:32.105Z,75.70
2023-04-09T18:01:58.841Z,75.80
2023-04-09T18:04:26.406Z,76.60
2023-04-09T18:06:54.394Z,76.00
2023-04-09T18:09:21.340Z,76.40
2023-04-09T18:11:48.910Z,77.00
2023-04-09T18:14:15.650Z,76.50
2023-04-09T18:16:42.253Z,76.40
2023-04-09T18:19:10.000Z,77.00
2023-04-09T18:21:36.678Z,77.40
2023-04-09T18:24:04.217Z,77.20
2023-04-09T18:26:31.626Z,77.40
2023-04-09T18:29:01.040Z,76.80
2023-04-09T18:31:28.201Z,77.10
2023-04-09T18:33:54.963Z,77.60
2023-04-09T18:36:21.577Z,77.20
2023-04-09T18:38:48.703Z,77.40
2023-04-09T18:41:22.454Z,77.80
2023-04-09T18:43:49.156Z,77.60
2023-04-09T18:46:15.870Z,77.60
2023-04-09T18:48:46.891Z,77.60
2023-04-09T18:51:14.243Z,78.10
2023-04-09T18:53:41.569Z,78.00
2023-04-09T18:56:08.315Z,78.50
2023-04-09T18:58:35.973Z,78.60
2023-04-09T19:01:11.526Z,78.40
2023-04-09T19:03:39.565Z,79.00
2023-04-09T19:06:14.776Z,79.30
2023-04-09T19:08:41.640Z,79.80
2023-04-09T19:11:08.357Z,79.80
2023-04-09T19:13:36.489Z,79.80
2023-04-09T19:16:03.764Z,79.90
2023-04-09T19:18:31.104Z,79.90
2023-04-09T19:20:58.322Z,79.70
2023-04-09T19:23:26.306Z,80.00
2023-04-09T19:25:56.192Z,80.00
2023-04-09T19:28:23.537Z,80.00
2023-04-09T19:30:52.338Z,80.40
2023-04-09T19:33:23.233Z,80.60
2023-04-09T19:35:51.332Z,80.80
2023-04-09T19:38:19.383Z,81.10
2023-04-09T19:40:46.798Z,80.90
2023-04-09T19:43:13.897Z,80.50
2023-04-09T19:45:41.288Z,80.80
2023-04-09T19:48:08.031Z,80.90
2023-04-09T19:50:37.656Z,80.80
2023-04-09T19:53:05.840Z,81.10
2023-04-09T19:55:33.565Z,80.80
2023-04-09T19:58:00.775Z,80.90
2023-04-09T20:00:28.173Z,80.50
2023-04-09T20:02:55.649Z,81.00
2023-04-09T20:05:22.825Z,81.10
2023-04-09T20:07:50.202Z,80.80
2023-04-09T20:10:16.924Z,81.20
2023-04-09T20:12:47.756Z,81.50
2023-04-09T20:15:15.138Z,81.60
2023-04-09T20:17:41.770Z,81.60
2023-04-09T20:20:08.914Z,82.10
2023-04-09T20:22:35.612Z,81.90
2023-04-09T20:25:02.430Z,81.70
2023-04-09T20:27:29.126Z,81.70
2023-04-09T20:29:56.350Z,81.90
2023-04-09T20:32:23.102Z,82.00
2023-04-09T20:34:49.731Z,82.10
2023-04-09T20:37:16.371Z,82.40
2023-04-09T20:39:43.210Z,82.80
2023-04-09T20:42:09.858Z,82.70
2023-04-09T20:44:36.517Z,83.00
2023-04-09T20:47:03.456Z,82.60
2023-04-09T20:49:30.055Z,83.10
2023-04-09T20:51:56.742Z,83.00
2023-04-09T20:54:23.442Z,83.20
2023-04-09T20:56:50.170Z,83.40
2023-04-09T20:59:19.002Z,83.20
2023-04-09T21:01:45.902Z,83.60
2023-04-09T21:04:12.930Z,83.50
2023-04-09T21:06:40.336Z,83.70
2023-04-09T21:09:07.005Z,83.60
2023-04-09T21:11:33.693Z,83.80
2023-04-09T21:14:00.301Z,84.30
2023-04-09T21:16:28.403Z,83.80
2023-04-09T21:18:55.617Z,84.10
2023-04-09T21:21:22.454Z,84.00
2023-04-09T21:23:49.539Z,84.50
2023-04-09T21:26:16.237Z,84.60
2023-04-09T21:28:43.119Z,84.30
2023-04-09T21:31:11.060Z,84.80
2023-04-09T21:33:39.053Z,85.10
2023-04-09T21:36:07.538Z,85.30
2023-04-09T21:38:34.229Z,85.30
2023-04-09T21:41:01.934Z,85.40
2023-04-09T21:43:29.171Z,86.00
2023-04-09T21:45:58.810Z,85.80
2023-04-09T21:48:26.377Z,86.50
2023-04-09T21:50:53.026Z,86.60
2023-04-09T21:53:19.814Z,87.00
2023-04-09T21:55:46.989Z,86.90
2023-04-09T21:58:13.607Z,86.80
2023-04-09T22:00:40.507Z,86.90
2023-04-09T22:03:07.412Z,86.90
2023-04-09T22:05:34.667Z,86.80
2023-04-09T22:08:01.312Z,86.70
2023-04-09T22:10:28.399Z,86.80
2023-04-09T22:12:55.890Z,86.90
2023-04-09T22:15:22.529Z,87.20
2023-04-09T22:17:49.328Z,87.20
2023-04-09T22:20:16.094Z,88.00
2023-04-09T22:22:42.910Z,88.50
2023-04-09T22:25:11.532Z,88.60
2023-04-09T22:27:38.238Z,89.20
2023-04-09T22:30:05.707Z,89.50
2023-04-09T22:32:33.358Z,89.00
2023-04-09T22:35:00.136Z,88.80
2023-04-09T22:37:27.594Z,88.70
2023-04-09T22:39:54.343Z,89.00
2023-04-09T22:42:21.383Z,88.80
2023-04-09T22:44:48.712Z,88.90
2023-04-09T22:47:15.802Z,89.40
2023-04-09T22:49:42.600Z,89.20
2023-04-09T22:52:09.866Z,89.80
2023-04-09T22:54:37.877Z,89.80
2023-04-09T22:57:05.126Z,90.00
2023-04-09T22:59:40.106Z,89.90
2023-04-09T23:02:08.092Z,90.40
2023-04-09T23:04:35.001Z,90.50
2023-04-09T23:07:02.293Z,90.60
2023-04-09T23:09:30.760Z,91.10
2023-04-09T23:11:57.478Z,91.70
2023-04-09T23:14:24.133Z,91.80
2023-04-09T23:16:50.762Z,92.20
2023-04-09T23:19:17.352Z,92.70
2023-04-09T23:21:43.943Z,92.80
2023-04-09T23:24:10.559Z,93.00
2023-04-09T23:26:37.202Z,93.20
2023-04-09T23:29:03.822Z,93.50
2023-04-09T23:31:30.446Z,93.40
2023-04-09T23:33:57.067Z,93.40
2023-04-09T23:36:24.118Z,93.60
2023-04-09T23:38:51.202Z,93.80
2023-04-09T23:41:17.800Z,93.30
2023-04-09T23:43:44.441Z,93.30
2023-04-09T23:46:11.089Z,93.40
2023-04-09T23:48:38.041Z,93.00
2023-04-09T23:51:04.899Z,93.10
2023-04-09T23:53:31.574Z,92.90
2023-04-09T23:55:58.505Z,92.90
2023-04-09T23:58:25.795Z,92.90
